Time;durP1;ratioP1;P1;durP2;ratioP2;P2;SDS_P1;SDS_P2;PMS_P1;PMS_P2;Temp;Humidity;BMP_temperature;BMP_pressure;BME280_temperature;BME280_humidity;BME280_pressure;Samples;Min_cycle;Max_cycle;Signal;HPM_P1;HPM_P2
2023/04/26 00:00:07;;;;;;;10.80;2.90;;;6.20;99.90;;;;;;5040711;28;20029;-72
2023/04/26 00:02:34;;;;;;;9.32;2.92;;;6.20;99.90;;;;;;5042667;28;20108;-72
2023/04/26 00:05:02;;;;;;;7.78;2.08;;;6.10;99.90;;;;;;5049209;28;20029;-72
2023/04/26 00:07:29;;;;;;;9.40;2.70;;;6.00;99.90;;;;;;5037367;28;20044;-71
2023/04/26 00:09:55;;;;;;;7.25;3.00;;;6.00;99.90;;;;;;5047729;28;20025;-71
2023/04/26 00:12:20;;;;;;;12.77;3.10;;;5.90;99.90;;;;;;5043248;28;20025;-71
2023/04/26 00:14:46;;;;;;;14.30;2.90;;;5.90;99.90;;;;;;5040452;28;20029;-72
2023/04/26 00:17:12;;;;;;;9.77;3.00;;;5.90;99.90;;;;;;5049990;28;20024;-72
2023/04/26 00:19:38;;;;;;;10.25;2.60;;;5.90;99.90;;;;;;5037597;28;20515;-72
2023/04/26 00:22:04;;;;;;;10.15;3.83;;;5.80;99.90;;;;;;5046032;28;20376;-72
2023/04/26 00:24:31;;;;;;;14.63;3.17;;;5.80;99.90;;;;;;5036431;28;20030;-72
2023/04/26 00:26:57;;;;;;;8.60;2.67;;;5.90;99.90;;;;;;5048072;28;20040;-72
2023/04/26 00:29:23;;;;;;;13.32;3.60;;;5.90;99.90;;;;;;5036776;28;20535;-72
2023/04/26 00:31:48;;;;;;;16.45;3.20;;;6.00;99.90;;;;;;5047885;28;20021;-72
2023/04/26 00:34:14;;;;;;;10.70;3.40;;;6.10;99.90;;;;;;5042186;28;20521;-72
2023/04/26 00:36:40;;;;;;;9.30;2.50;;;6.10;99.90;;;;;;5040653;28;20021;-72
2023/04/26 00:39:07;;;;;;;17.02;2.80;;;6.00;99.90;;;;;;5031756;28;20077;-72
2023/04/26 00:41:33;;;;;;;13.68;3.85;;;6.00;99.90;;;;;;5031846;28;20029;-72
2023/04/26 00:43:58;;;;;;;12.35;3.20;;;5.90;99.90;;;;;;5031747;28;20033;-71
2023/04/26 00:46:25;;;;;;;14.35;3.70;;;5.90;99.90;;;;;;5031700;28;20381;-71
2023/04/26 00:48:51;;;;;;;14.00;3.70;;;5.80;99.90;;;;;;5031112;28;20034;-71
2023/04/26 00:51:17;;;;;;;12.13;3.28;;;5.80;99.90;;;;;;5032143;28;20445;-72
2023/04/26 00:53:42;;;;;;;12.70;3.00;;;5.70;99.90;;;;;;5031177;28;20418;-73
2023/04/26 00:56:11;;;;;;;9.80;3.63;;;5.60;99.90;;;;;;5031746;28;20037;-73
2023/04/26 00:58:37;;;;;;;9.80;2.72;;;5.60;99.90;;;;;;5031947;28;20025;-72
2023/04/26 01:01:03;;;;;;;9.48;3.33;;;5.50;99.90;;;;;;5031806;28;20059;-72
2023/04/26 01:03:29;;;;;;;12.95;3.30;;;5.50;99.90;;;;;;5031272;28;20022;-72
2023/04/26 01:05:55;;;;;;;10.30;3.13;;;5.50;99.90;;;;;;5031282;28;20029;-72
2023/04/26 01:08:22;;;;;;;13.68;2.90;;;5.40;99.90;;;;;;5031702;28;20385;-71
2023/04/26 01:10:48;;;;;;;9.80;3.17;;;5.40;99.90;;;;;;5031520;28;20488;-72
2023/04/26 01:13:15;;;;;;;11.20;3.13;;;5.30;99.90;;;;;;5031677;28;20101;-72
2023/04/26 01:15:47;;;;;;;10.48;2.90;;;5.30;99.90;;;;;;5031616;28;20393;-72
2023/04/26 01:18:13;;;;;;;12.13;4.03;;;5.30;99.90;;;;;;5032911;28;20033;-72
2023/04/26 01:20:40;;;;;;;9.48;3.45;;;5.30;99.90;;;;;;5032871;28;20044;-72
2023/04/26 01:23:07;;;;;;;9.77;2.88;;;5.20;99.90;;;;;;5032386;28;20080;-72
2023/04/26 01:25:33;;;;;;;8.82;3.08;;;5.20;99.90;;;;;;5031905;28;20536;-71
2023/04/26 01:27:59;;;;;;;10.98;2.63;;;5.20;99.90;;;;;;5032476;28;20061;-71
2023/04/26 01:30:25;;;;;;;8.63;2.70;;;5.20;99.90;;;;;;5031990;28;20079;-72
2023/04/26 01:32:50;;;;;;;13.93;3.38;;;5.20;99.90;;;;;;5032311;28;20026;-72
2023/04/26 01:35:16;;;;;;;11.50;2.65;;;5.30;99.90;;;;;;5031389;28;20037;-72
2023/04/26 01:37:42;;;;;;;12.52;2.80;;;5.30;99.90;;;;;;5032054;28;20175;-71
2023/04/26 01:40:08;;;;;;;9.15;2.40;;;5.30;99.90;;;;;;5032540;28;20029;-72
2023/04/26 01:42:34;;;;;;;5.35;2.40;;;5.30;99.90;;;;;;5031629;28;20404;-71
2023/04/26 01:45:00;;;;;;;6.57;2.60;;;5.30;99.90;;;;;;5031192;28;20033;-71
2023/04/26 01:47:25;;;;;;;9.43;3.00;;;5.30;99.90;;;;;;5031970;28;20137;-71
2023/04/26 01:49:51;;;;;;;11.60;3.00;;;5.30;99.90;;;;;;5032386;28;20034;-71
2023/04/26 01:52:17;;;;;;;12.77;2.70;;;5.30;99.90;;;;;;5032216;28;20450;-71
2023/04/26 01:54:42;;;;;;;14.20;2.45;;;5.20;99.90;;;;;;5031550;28;20087;-71
2023/04/26 01:57:08;;;;;;;8.45;2.55;;;5.20;99.90;;;;;;5032305;28;20473;-71
2023/04/26 01:59:34;;;;;;;9.25;2.70;;;5.20;99.90;;;;;;5032313;28;20105;-71
2023/04/26 02:01:59;;;;;;;7.25;2.13;;;5.20;99.90;;;;;;5031555;28;20040;-71
2023/04/26 02:04:25;;;;;;;11.32;2.17;;;5.20;99.90;;;;;;5033627;28;20029;-71
2023/04/26 02:06:51;;;;;;;12.13;2.92;;;5.20;99.90;;;;;;5035517;28;20065;-71
2023/04/26 02:09:17;;;;;;;7.95;2.58;;;5.20;99.90;;;;;;5035881;28;20446;-72
2023/04/26 02:11:43;;;;;;;7.82;2.58;;;5.20;99.90;;;;;;5035742;28;20120;-72
2023/04/26 02:14:08;;;;;;;12.25;3.20;;;5.10;99.90;;;;;;5034680;28;20041;-72
2023/04/26 02:16:34;;;;;;;9.13;2.80;;;5.10;99.90;;;;;;5034016;28;20033;-72
2023/04/26 02:18:59;;;;;;;5.95;2.55;;;5.10;99.90;;;;;;5034707;28;20049;-71
2023/04/26 02:21:27;;;;;;;8.88;2.83;;;5.00;99.90;;;;;;5034219;28;20048;-71
2023/04/26 02:23:53;;;;;;;11.48;3.15;;;5.00;99.90;;;;;;5033732;28;20538;-70
2023/04/26 02:26:18;;;;;;;13.13;3.05;;;5.00;99.90;;;;;;5031513;28;20052;-71
2023/04/26 02:28:44;;;;;;;12.68;2.97;;;5.00;99.90;;;;;;5033687;28;20041;-71
2023/04/26 02:31:10;;;;;;;6.38;2.78;;;5.00;99.90;;;;;;5034225;28;20021;-71
2023/04/26 02:33:35;;;;;;;9.40;2.78;;;5.10;99.90;;;;;;5033163;28;20112;-71
2023/04/26 02:36:05;;;;;;;10.15;3.10;;;5.20;99.90;;;;;;5032811;28;20038;-71
2023/04/26 02:38:35;;;;;;;8.07;2.97;;;5.30;99.90;;;;;;5052916;28;20064;-71
2023/04/26 02:41:02;;;;;;;12.05;3.17;;;5.40;99.90;;;;;;5040796;28;20017;-71
2023/04/26 02:43:28;;;;;;;8.95;2.97;;;5.50;99.90;;;;;;5045816;28;21052;-71
2023/04/26 02:45:53;;;;;;;9.27;2.30;;;5.60;99.90;;;;;;5038398;28;20025;-71
2023/04/26 02:48:19;;;;;;;11.57;2.83;;;5.70;99.90;;;;;;5049330;28;20041;-72
2023/04/26 02:50:46;;;;;;;7.63;2.55;;;5.70;99.90;;;;;;5035781;28;20033;-71
2023/04/26 02:53:11;;;;;;;9.93;2.40;;;5.80;99.90;;;;;;5040672;28;20025;-70
2023/04/26 02:55:38;;;;;;;9.82;2.58;;;5.80;99.90;;;;;;5037455;28;20378;-71
2023/04/26 02:58:03;;;;;;;8.93;2.58;;;5.90;99.90;;;;;;5046552;28;20025;-72
2023/04/26 03:00:29;;;;;;;13.02;3.13;;;5.90;99.90;;;;;;5052830;28;20032;-72
2023/04/26 03:02:55;;;;;;;8.48;2.67;;;5.80;99.90;;;;;;5037127;28;20041;-71
2023/04/26 03:05:21;;;;;;;10.88;2.38;;;5.80;99.90;;;;;;5040147;28;20065;-71
2023/04/26 03:07:47;;;;;;;8.15;2.40;;;5.70;99.90;;;;;;5046412;28;20037;-71
2023/04/26 03:10:12;;;;;;;6.35;2.42;;;5.60;99.90;;;;;;5039802;28;20112;-71
2023/04/26 03:12:38;;;;;;;10.88;2.40;;;5.50;99.90;;;;;;5051422;28;20037;-71
2023/04/26 03:15:04;;;;;;;8.27;2.55;;;5.50;99.90;;;;;;5038376;28;20497;-71
2023/04/26 03:17:30;;;;;;;8.95;2.90;;;5.40;99.90;;;;;;5041795;28;20043;-71
2023/04/26 03:19:56;;;;;;;10.50;2.50;;;5.30;99.90;;;;;;5036914;28;20033;-71
2023/04/26 03:22:21;;;;;;;7.20;2.40;;;5.20;99.90;;;;;;5038997;28;20413;-72
2023/04/26 03:24:47;;;;;;;9.60;2.33;;;5.20;99.90;;;;;;5042129;28;20081;-71
2023/04/26 03:27:13;;;;;;;10.20;2.78;;;5.10;99.90;;;;;;5039599;28;20073;-71
2023/04/26 03:29:39;;;;;;;13.23;2.25;;;5.10;99.90;;;;;;5037563;28;20408;-72
2023/04/26 03:32:05;;;;;;;8.40;2.50;;;5.00;99.90;;;;;;5037433;28;20048;-71
2023/04/26 03:34:31;;;;;;;6.10;2.50;;;5.00;99.90;;;;;;5035330;28;20032;-71
2023/04/26 03:36:57;;;;;;;11.27;2.97;;;4.90;99.90;;;;;;5042828;28;20048;-72
2023/04/26 03:39:22;;;;;;;7.88;2.65;;;4.90;99.90;;;;;;5046251;28;20029;-72
2023/04/26 03:41:48;;;;;;;8.20;2.38;;;4.80;99.90;;;;;;5045217;28;20025;-72
2023/04/26 03:44:14;;;;;;;8.35;3.00;;;4.80;99.90;;;;;;5046597;28;20084;-71
2023/04/26 03:46:40;;;;;;;10.10;2.92;;;4.80;99.90;;;;;;5047031;28;20029;-72
2023/04/26 03:49:06;;;;;;;9.52;3.13;;;4.80;99.90;;;;;;5047865;28;20088;-72
2023/04/26 03:51:31;;;;;;;8.18;3.10;;;4.80;99.90;;;;;;5044933;28;20044;-71
2023/04/26 03:54:00;;;;;;;13.88;3.17;;;4.80;99.90;;;;;;5048567;28;20025;-70
2023/04/26 03:56:26;;;;;;;8.35;2.80;;;4.80;99.90;;;;;;5044778;28;20033;-71
2023/04/26 03:58:51;;;;;;;8.40;2.78;;;4.80;99.90;;;;;;5049999;28;20026;-71
2023/04/26 04:01:18;;;;;;;9.98;2.75;;;4.90;99.90;;;;;;5040977;28;20109;-71
2023/04/26 04:03:43;;;;;;;8.48;2.70;;;5.00;99.90;;;;;;5043509;28;20033;-72
2023/04/26 04:06:09;;;;;;;6.55;2.70;;;5.00;99.90;;;;;;5037009;28;20051;-69
2023/04/26 04:08:35;;;;;;;14.65;2.63;;;5.10;99.90;;;;;;5050556;28;20037;-72
2023/04/26 04:11:00;;;;;;;9.20;2.50;;;5.10;99.90;;;;;;5035126;28;20525;-72
2023/04/26 04:13:26;;;;;;;3.53;2.20;;;5.20;99.90;;;;;;5043159;28;20122;-72
2023/04/26 04:15:52;;;;;;;8.10;2.33;;;5.20;99.90;;;;;;5041273;28;20041;-71
2023/04/26 04:18:17;;;;;;;11.13;2.90;;;5.30;99.90;;;;;;5033957;28;20068;-71
2023/04/26 04:20:43;;;;;;;8.45;2.38;;;5.30;99.90;;;;;;5040668;28;20116;-71
2023/04/26 04:23:09;;;;;;;8.50;2.25;;;5.40;99.90;;;;;;5034102;28;20030;-71
2023/04/26 04:25:35;;;;;;;10.05;2.45;;;5.50;99.90;;;;;;5035634;28;20029;-70
2023/04/26 04:28:02;;;;;;;8.93;2.65;;;5.60;99.90;;;;;;5032333;28;20520;-71
2023/04/26 04:30:29;;;;;;;11.68;2.88;;;5.60;99.90;;;;;;5034821;28;20064;-71
2023/04/26 04:32:57;;;;;;;9.63;2.35;;;5.70;99.90;;;;;;5048898;28;20029;-70
2023/04/26 04:35:27;;;;;;;11.38;2.92;;;5.80;99.90;;;;;;5041968;28;20040;-71
2023/04/26 04:37:53;;;;;;;9.35;3.10;;;5.90;99.90;;;;;;5046794;28;20028;-71
2023/04/26 04:40:18;;;;;;;10.05;2.72;;;5.90;99.90;;;;;;5037336;28;20028;-71
2023/04/26 04:42:45;;;;;;;9.27;3.53;;;6.10;99.90;;;;;;5049781;28;20037;-70
2023/04/26 04:45:11;;;;;;;10.07;2.70;;;6.10;99.90;;;;;;5042589;28;20352;-71
2023/04/26 04:47:38;;;;;;;8.38;2.47;;;6.20;99.90;;;;;;5046904;28;20458;-71
2023/04/26 04:50:05;;;;;;;13.90;3.83;;;6.30;99.90;;;;;;5038720;28;20034;-71
2023/04/26 04:52:32;;;;;;;9.27;3.30;;;6.40;99.90;;;;;;5049526;28;20025;-72
2023/04/26 04:54:58;;;;;;;10.20;3.40;;;6.50;99.90;;;;;;5037771;28;20072;-70
2023/04/26 04:57:23;;;;;;;14.18;3.50;;;6.60;99.90;;;;;;5049172;28;20036;-70
2023/04/26 04:59:50;;;;;;;12.23;4.32;;;6.70;99.90;;;;;;5037687;28;20037;-71
2023/04/26 05:02:15;;;;;;;7.05;2.25;;;6.80;99.90;;;;;;5047979;28;20033;-71
2023/04/26 05:04:41;;;;;;;7.03;2.20;;;6.80;99.90;;;;;;5037571;28;20079;-70
2023/04/26 05:07:06;;;;;;;7.90;2.70;;;6.90;99.90;;;;;;5032931;28;20033;-70
2023/04/26 05:09:32;;;;;;;9.05;1.73;;;7.00;99.90;;;;;;5037278;28;20025;-71
2023/04/26 05:11:58;;;;;;;6.22;2.10;;;7.10;99.90;;;;;;5034763;28;20371;-70
2023/04/26 05:14:23;;;;;;;13.05;2.60;;;7.20;99.90;;;;;;5033622;28;20022;-71
2023/04/26 05:16:49;;;;;;;9.10;2.60;;;7.30;99.90;;;;;;5039854;28;20097;-71
2023/04/26 05:19:14;;;;;;;7.30;1.77;;;7.40;99.90;;;;;;5040169;28;20037;-71
2023/04/26 05:21:40;;;;;;;7.03;1.55;;;7.50;99.90;;;;;;5042380;28;20378;-71
2023/04/26 05:24:05;;;;;;;11.05;2.25;;;7.60;99.90;;;;;;5038269;28;20060;-71
2023/04/26 05:26:31;;;;;;;4.97;1.98;;;7.80;99.90;;;;;;5048169;28;20484;-71
2023/04/26 05:28:57;;;;;;;6.78;1.85;;;7.90;99.90;;;;;;5038634;28;20158;-72
2023/04/26 05:31:23;;;;;;;6.38;2.10;;;8.00;99.90;;;;;;5048212;28;20394;-71
2023/04/26 05:33:48;;;;;;;8.63;2.30;;;8.20;99.90;;;;;;5039824;28;20452;-71
2023/04/26 05:36:14;;;;;;;4.65;1.90;;;8.30;99.90;;;;;;5033470;28;20037;-71
2023/04/26 05:38:40;;;;;;;8.05;2.55;;;8.40;99.90;;;;;;5048689;28;20029;-72
2023/04/26 05:41:05;;;;;;;5.28;1.88;;;8.50;99.90;;;;;;5038531;28;20029;-71
2023/04/26 05:43:31;;;;;;;2.00;1.00;;;8.50;99.90;;;;;;5039923;28;20083;-72
2023/04/26 05:45:56;;;;;;;12.35;3.72;;;8.50;99.90;;;;;;5044597;28;20477;-71
2023/04/26 05:48:23;;;;;;;9.05;2.78;;;8.50;99.90;;;;;;5049249;28;20079;-72
2023/04/26 05:50:50;;;;;;;11.45;2.95;;;8.40;99.90;;;;;;5036422;28;20029;-71
2023/04/26 05:53:18;;;;;;;8.07;2.97;;;8.40;99.90;;;;;;5042455;28;20059;-71
2023/04/26 05:55:43;;;;;;;10.00;2.33;;;8.40;99.90;;;;;;5035946;28;20033;-71
2023/04/26 05:58:09;;;;;;;7.38;2.28;;;8.30;99.90;;;;;;5033293;28;20088;-71
2023/04/26 06:00:36;;;;;;;8.85;1.80;;;8.20;99.90;;;;;;5046868;28;20029;-71
2023/04/26 06:03:02;;;;;;;6.85;2.75;;;8.10;99.90;;;;;;5037620;28;20087;-71
2023/04/26 06:05:27;;;;;;;6.35;1.88;;;8.00;99.90;;;;;;5045298;28;20469;-71
2023/04/26 06:07:53;;;;;;;7.63;3.13;;;8.00;99.90;;;;;;5048364;28;20481;-70
2023/04/26 06:10:19;;;;;;;4.97;2.03;;;8.00;99.90;;;;;;5035944;28;20037;-72
2023/04/26 06:12:46;;;;;;;7.25;2.80;;;8.00;99.90;;;;;;5033505;28;20484;-70
2023/04/26 06:15:11;;;;;;;4.25;1.67;;;8.20;99.90;;;;;;5039005;28;20529;-70
2023/04/26 06:17:37;;;;;;;7.95;2.53;;;8.30;99.90;;;;;;5049407;28;20151;-70
2023/04/26 06:20:04;;;;;;;12.38;4.18;;;8.50;99.90;;;;;;5036501;28;20028;-70
2023/04/26 06:22:30;;;;;;;5.97;2.10;;;8.60;99.90;;;;;;5033208;28;20092;-72
2023/04/26 06:24:55;;;;;;;8.65;2.83;;;8.70;99.90;;;;;;5039071;28;20029;-71
2023/04/26 06:27:21;;;;;;;5.32;2.15;;;8.90;99.90;;;;;;5048640;28;20049;-71
2023/04/26 06:29:47;;;;;;;9.93;2.67;;;9.00;99.90;;;;;;5044464;28;20123;-70
2023/04/26 06:32:12;;;;;;;5.85;2.05;;;9.20;99.90;;;;;;5036279;28;20056;-70
2023/04/26 06:34:39;;;;;;;8.40;3.10;;;9.40;99.90;;;;;;5030653;28;20130;-73
2023/04/26 06:37:07;;;;;;;12.48;4.78;;;9.60;99.90;;;;;;5040686;28;20037;-72
2023/04/26 06:39:33;;;;;;;10.18;2.40;;;9.80;99.90;;;;;;5043577;28;20037;-71
2023/04/26 06:41:58;;;;;;;10.65;3.72;;;9.90;99.90;;;;;;5034432;28;20030;-71
2023/04/26 06:44:24;;;;;;;14.63;5.20;;;10.20;99.90;;;;;;5035314;28;20021;-71
2023/04/26 06:46:54;;;;;;;10.05;2.42;;;10.30;99.90;;;;;;5037297;28;20096;-72
2023/04/26 06:49:20;;;;;;;11.82;2.33;;;10.40;99.90;;;;;;5042640;28;20037;-72
2023/04/26 06:51:45;;;;;;;13.60;4.63;;;10.50;99.90;;;;;;5032408;28;20028;-70
2023/04/26 06:54:11;;;;;;;7.07;2.75;;;10.70;99.90;;;;;;5049619;28;20037;-71
2023/04/26 06:56:37;;;;;;;9.52;2.75;;;10.70;99.90;;;;;;5040836;28;20030;-70
2023/04/26 06:59:04;;;;;;;5.78;2.90;;;10.70;99.90;;;;;;5047945;28;20116;-72
2023/04/26 07:01:34;;;;;;;14.63;5.22;;;10.60;99.90;;;;;;5035391;28;20033;-70
2023/04/26 07:04:06;;;;;;;10.18;3.70;;;10.50;99.90;;;;;;5038616;28;20040;-72
2023/04/26 07:06:32;;;;;;;6.18;2.45;;;10.40;99.90;;;;;;5037784;28;20028;-70
2023/04/26 07:08:58;;;;;;;7.00;2.42;;;10.40;99.90;;;;;;5035714;28;20037;-72
2023/04/26 07:11:24;;;;;;;7.40;2.42;;;10.40;99.90;;;;;;5050454;28;20056;-72
2023/04/26 07:13:50;;;;;;;7.15;2.20;;;10.40;99.90;;;;;;5037281;28;20061;-71
2023/04/26 07:16:16;;;;;;;5.93;2.10;;;10.40;99.90;;;;;;5049340;28;20518;-71
2023/04/26 07:18:42;;;;;;;11.50;4.60;;;10.40;99.90;;;;;;5051616;28;20482;-72
2023/04/26 07:21:07;;;;;;;8.10;3.38;;;10.40;99.90;;;;;;5041051;28;20108;-71
2023/04/26 07:23:33;;;;;;;7.60;3.10;;;10.50;99.90;;;;;;5040315;28;20034;-71
2023/04/26 07:26:00;;;;;;;14.02;3.58;;;10.50;99.90;;;;;;5047130;28;20036;-71
2023/04/26 07:28:26;;;;;;;5.15;1.30;;;10.60;99.90;;;;;;5031243;28;20088;-72
2023/04/26 07:30:52;;;;;;;7.13;2.22;;;10.50;99.90;;;;;;5050186;28;20057;-72
2023/04/26 07:33:17;;;;;;;4.80;1.50;;;10.50;99.90;;;;;;5033734;28;20139;-71
2023/04/26 07:35:43;;;;;;;8.30;2.75;;;10.50;99.90;;;;;;5041536;28;20029;-71
2023/04/26 07:38:09;;;;;;;11.20;2.88;;;10.40;99.90;;;;;;5048640;28;20065;-71
2023/04/26 07:40:35;;;;;;;8.13;1.92;;;10.50;99.90;;;;;;5035282;28;20025;-71
2023/04/26 07:43:01;;;;;;;8.10;2.50;;;10.40;99.90;;;;;;5043049;28;20040;-71
2023/04/26 07:45:26;;;;;;;8.43;2.42;;;10.40;99.90;;;;;;5037642;28;20025;-71
2023/04/26 07:47:53;;;;;;;4.13;1.73;;;10.40;99.90;;;;;;5045963;28;20039;-72
2023/04/26 07:50:19;;;;;;;5.18;1.88;;;10.50;99.90;;;;;;5037870;28;20034;-71
2023/04/26 07:52:45;;;;;;;7.43;1.90;;;10.50;99.90;;;;;;5045463;28;20048;-71
2023/04/26 07:55:11;;;;;;;6.90;2.53;;;10.60;99.90;;;;;;5046921;28;20038;-72
2023/04/26 07:57:37;;;;;;;7.70;2.17;;;10.50;99.90;;;;;;5044313;28;20104;-71
2023/04/26 08:00:06;;;;;;;9.10;2.67;;;10.50;99.90;;;;;;5039602;28;20429;-72
2023/04/26 08:02:32;;;;;;;5.40;2.40;;;10.50;99.90;;;;;;5042415;28;20057;-71
2023/04/26 08:04:58;;;;;;;6.80;2.53;;;10.50;99.90;;;;;;5039935;28;20079;-71
2023/04/26 08:07:23;;;;;;;6.35;2.10;;;10.70;99.90;;;;;;5041388;28;20033;-73
2023/04/26 08:09:49;;;;;;;8.32;2.83;;;10.80;99.90;;;;;;5041364;28;20060;-72
2023/04/26 08:12:14;;;;;;;6.72;2.58;;;11.00;99.90;;;;;;5040244;28;20021;-72
2023/04/26 08:14:40;;;;;;;6.32;2.42;;;11.10;99.90;;;;;;5038060;28;20543;-72
2023/04/26 08:17:08;;;;;;;6.82;2.30;;;11.30;99.90;;;;;;5044607;28;20436;-71
2023/04/26 08:19:35;;;;;;;6.95;2.35;;;11.40;99.90;;;;;;5050973;28;20473;-73
2023/04/26 08:22:00;;;;;;;5.72;1.95;;;11.60;99.90;;;;;;5048729;28;20378;-72
2023/04/26 08:24:26;;;;;;;3.28;1.20;;;11.60;99.90;;;;;;5037049;28;20030;-73
2023/04/26 08:26:52;;;;;;;5.00;1.98;;;11.60;99.90;;;;;;5049756;28;20085;-71
2023/04/26 08:29:18;;;;;;;3.50;1.48;;;11.60;99.50;;;;;;5044467;28;20537;-71
2023/04/26 08:31:43;;;;;;;8.35;1.88;;;11.50;99.20;;;;;;5035019;28;20434;-71
2023/04/26 08:34:10;;;;;;;3.33;1.33;;;11.50;99.30;;;;;;5047411;28;20025;-71
2023/04/26 08:36:40;;;;;;;7.97;2.60;;;11.40;99.10;;;;;;5035037;28;20112;-72
2023/04/26 08:39:06;;;;;;;6.38;1.70;;;11.40;99.20;;;;;;5051078;28;20037;-72
2023/04/26 08:41:36;;;;;;;4.35;1.90;;;11.40;99.20;;;;;;5043849;28;20037;-73
2023/04/26 08:44:04;;;;;;;4.05;1.35;;;11.40;98.90;;;;;;5047232;28;20028;-71
2023/04/26 08:46:39;;;;;;;5.00;1.27;;;11.60;99.30;;;;;;5040699;28;20033;-72
2023/04/26 08:49:13;;;;;;;4.72;1.90;;;11.80;99.00;;;;;;5052574;28;20052;-73
2023/04/26 08:51:40;;;;;;;8.40;1.92;;;12.10;98.00;;;;;;5042213;28;20029;-72
2023/04/26 08:54:07;;;;;;;8.05;2.15;;;12.40;97.60;;;;;;5047245;28;20508;-72
2023/04/26 08:56:34;;;;;;;6.38;1.83;;;12.70;97.90;;;;;;5032629;28;20469;-72
2023/04/26 08:59:00;;;;;;;3.03;1.60;;;12.80;97.00;;;;;;5037359;28;20381;-72
2023/04/26 09:01:28;;;;;;;6.03;2.20;;;12.90;96.20;;;;;;5033052;28;20036;-71
2023/04/26 09:03:55;;;;;;;5.18;2.15;;;13.00;96.70;;;;;;5039039;28;20112;-73
2023/04/26 09:06:22;;;;;;;8.48;3.15;;;13.00;96.80;;;;;;5036546;28;20060;-72
2023/04/26 09:08:48;;;;;;;6.95;1.65;;;13.10;96.80;;;;;;5018910;28;20037;-71
2023/04/26 09:11:13;;;;;;;7.85;2.75;;;13.10;96.20;;;;;;5045307;28;20041;-72
2023/04/26 09:13:39;;;;;;;7.90;2.83;;;13.10;96.60;;;;;;5041849;28;20112;-71
2023/04/26 09:16:05;;;;;;;6.68;2.55;;;13.50;96.10;;;;;;5046776;28;20025;-69
2023/04/26 09:18:32;;;;;;;9.00;2.42;;;14.60;95.30;;;;;;5032401;28;20025;-70
2023/04/26 09:21:06;;;;;;;4.95;1.23;;;16.10;93.00;;;;;;5035385;28;20037;-70
2023/04/26 09:23:32;;;;;;;4.25;1.80;;;17.10;90.40;;;;;;5037515;28;20096;-72
2023/04/26 09:26:17;;;;;;;5.45;1.70;;;18.00;90.50;;;;;;5035941;28;20112;-71
2023/04/26 09:28:45;;;;;;;7.30;2.55;;;19.10;87.20;;;;;;5035849;28;20441;-72
2023/04/26 09:31:13;;;;;;;8.82;2.53;;;19.70;86.70;;;;;;5042286;28;20025;-72
2023/04/26 09:33:59;;;;;;;8.75;2.75;;;20.10;84.90;;;;;;5036612;28;20303;-72
2023/04/26 09:36:26;;;;;;;4.43;1.98;;;19.70;83.50;;;;;;5049706;28;20033;-70
2023/04/26 09:38:52;;;;;;;6.05;2.10;;;19.00;83.20;;;;;;5037585;28;20413;-70
2023/04/26 09:41:17;;;;;;;7.22;1.85;;;18.50;83.30;;;;;;5039225;28;20044;-71
2023/04/26 09:43:44;;;;;;;8.90;2.90;;;17.90;83.60;;;;;;5040130;28;20029;-72
2023/04/26 09:46:09;;;;;;;5.18;2.40;;;17.50;84.10;;;;;;5033434;28;20497;-70
2023/04/26 09:48:35;;;;;;;7.45;2.50;;;17.10;84.20;;;;;;5044800;28;20079;-70
2023/04/26 09:51:03;;;;;;;4.57;1.70;;;16.90;85.00;;;;;;5036962;28;20032;-71
2023/04/26 09:53:54;;;;;;;3.58;1.55;;;17.30;82.20;;;;;;5042617;28;20129;-70
2023/04/26 09:56:20;;;;;;;7.72;2.30;;;17.90;79.40;;;;;;5039760;28;20082;-71
2023/04/26 09:58:46;;;;;;;9.68;3.17;;;18.60;79.40;;;;;;5048764;28;20017;-71
2023/04/26 10:01:15;;;;;;;5.32;1.85;;;18.70;79.30;;;;;;5042342;28;20051;-71
2023/04/26 10:03:41;;;;;;;4.15;1.88;;;19.40;76.70;;;;;;5032343;28;20390;-71
2023/04/26 10:06:07;;;;;;;9.60;3.13;;;20.00;76.60;;;;;;5041163;28;20105;-71
2023/04/26 10:08:33;;;;;;;8.30;2.70;;;20.00;75.20;;;;;;5035225;28;20452;-71
2023/04/26 10:11:06;;;;;;;10.98;4.85;;;19.70;75.90;;;;;;5047192;28;20075;-71
2023/04/26 10:13:32;;;;;;;5.95;2.30;;;19.30;76.30;;;;;;5041303;28;20064;-71
2023/04/26 10:16:00;;;;;;;8.15;3.63;;;18.70;76.90;;;;;;5041710;28;20481;-71
2023/04/26 10:18:25;;;;;;;8.13;2.80;;;18.50;78.30;;;;;;5046786;28;20036;-72
2023/04/26 10:20:56;;;;;;;3.35;1.60;;;19.50;77.00;;;;;;5029881;28;20033;-71
2023/04/26 10:23:26;;;;;;;8.52;2.67;;;21.20;73.90;;;;;;5035220;28;20048;-71
2023/04/26 10:25:53;;;;;;;7.88;3.10;;;22.60;73.10;;;;;;5042423;28;20029;-71
2023/04/26 10:28:38;;;;;;;5.45;2.55;;;22.80;72.00;;;;;;5043889;28;20374;-71
2023/04/26 10:31:05;;;;;;;7.20;2.83;;;23.70;70.00;;;;;;5044966;28;20037;-71
2023/04/26 10:33:31;;;;;;;10.68;3.53;;;24.80;67.80;;;;;;5045114;28;20037;-71
2023/04/26 10:36:11;;;;;;;6.65;2.75;;;25.30;66.00;;;;;;5042096;28;20029;-72
2023/04/26 10:39:00;;;;;;;11.02;3.00;;;25.60;62.90;;;;;;5022987;28;20389;-71
2023/04/26 10:41:34;;;;;;;8.80;1.98;;;26.10;62.50;;;;;;5036217;28;20025;-71
2023/04/26 10:44:43;;;;;;;7.47;2.53;;;26.70;62.10;;;;;;5038036;28;20083;-72
2023/04/26 10:47:30;;;;;;;6.00;3.30;;;27.30;59.70;;;;;;5044505;28;20040;-71
2023/04/26 10:50:02;;;;;;;7.13;2.35;;;27.70;58.70;;;;;;5036750;28;20071;-71
2023/04/26 10:52:28;;;;;;;3.42;1.80;;;27.90;57.20;;;;;;5015304;28;20025;-71
2023/04/26 10:54:57;;;;;;;8.88;2.42;;;27.60;57.20;;;;;;5021812;28;20356;-71
2023/04/26 10:57:48;;;;;;;9.18;2.30;;;27.50;55.60;;;;;;5035625;28;20033;-72
2023/04/26 11:00:25;;;;;;;7.10;2.00;;;26.70;56.10;;;;;;5035495;28;20052;-70
2023/04/26 11:03:05;;;;;;;5.07;2.80;;;25.80;58.00;;;;;;5017563;28;20436;-70
2023/04/26 11:05:51;;;;;;;5.78;2.40;;;25.40;57.80;;;;;;5028749;28;20147;-71
2023/04/26 11:08:19;;;;;;;5.38;2.60;;;25.30;58.80;;;;;;5035245;28;20477;-71
2023/04/26 11:10:56;;;;;;;8.25;1.83;;;25.40;57.50;;;;;;5033351;28;20037;-70
2023/04/26 11:13:22;;;;;;;6.63;2.00;;;25.40;58.60;;;;;;5032488;28;20034;-71
2023/04/26 11:15:58;;;;;;;7.50;1.80;;;25.30;58.50;;;;;;5033819;28;20393;-71
2023/04/26 11:18:24;;;;;;;2.90;1.52;;;24.90;59.10;;;;;;5034613;28;20128;-71
2023/04/26 11:20:50;;;;;;;4.10;1.27;;;24.50;58.70;;;;;;5034885;28;20426;-70
2023/04/26 11:23:18;;;;;;;4.78;1.35;;;24.40;57.80;;;;;;5034565;28;20035;-72
2023/04/26 11:25:44;;;;;;;6.35;1.80;;;24.60;58.00;;;;;;5035221;28;20079;-72
2023/04/26 11:28:10;;;;;;;3.50;1.45;;;25.10;58.20;;;;;;5034580;28;20045;-72
2023/04/26 11:30:36;;;;;;;4.53;1.95;;;25.70;56.20;;;;;;5035020;28;20470;-71
2023/04/26 11:33:05;;;;;;;2.85;1.45;;;26.20;55.20;;;;;;5030350;28;20037;-72
2023/04/26 11:35:34;;;;;;;7.00;2.10;;;26.80;55.10;;;;;;5026932;28;20128;-71
2023/04/26 11:38:02;;;;;;;4.03;1.33;;;27.10;55.70;;;;;;5021174;28;20473;-71
2023/04/26 11:40:30;;;;;;;4.60;1.48;;;27.30;55.30;;;;;;5053358;28;20025;-69
2023/04/26 11:43:00;;;;;;;5.60;1.77;;;27.20;55.40;;;;;;5054372;28;20389;-69
2023/04/26 11:45:27;;;;;;;4.77;1.33;;;27.30;54.40;;;;;;5047527;28;20036;-71
2023/04/26 11:47:53;;;;;;;6.95;1.50;;;27.70;53.50;;;;;;5033117;28;20401;-71
2023/04/26 11:50:21;;;;;;;2.60;1.00;;;28.20;52.40;;;;;;5032716;28;20021;-70
2023/04/26 11:52:47;;;;;;;3.65;1.23;;;28.50;51.50;;;;;;5028071;28;20041;-71
2023/04/26 11:55:13;;;;;;;7.57;1.83;;;28.30;52.00;;;;;;5032949;28;20041;-70
2023/04/26 11:57:39;;;;;;;4.80;1.10;;;28.00;53.30;;;;;;5033272;28;20059;-71
2023/04/26 12:00:13;;;;;;;4.50;1.20;;;28.10;53.10;;;;;;5033259;28;20075;-70
2023/04/26 12:02:48;;;;;;;3.53;0.93;;;28.00;52.00;;;;;;5028607;28;20030;-70
2023/04/26 12:05:25;;;;;;;3.20;1.08;;;27.90;51.60;;;;;;5032677;28;20037;-70
2023/04/26 12:07:56;;;;;;;8.95;1.83;;;27.50;52.30;;;;;;5026346;28;20465;-70
2023/04/26 12:10:26;;;;;;;4.50;1.33;;;27.50;54.10;;;;;;5032590;28;20404;-70
2023/04/26 12:12:56;;;;;;;4.38;1.23;;;27.70;51.80;;;;;;5032797;28;20029;-69
2023/04/26 12:15:24;;;;;;;4.78;1.33;;;27.20;52.70;;;;;;5032734;28;20029;-69
2023/04/26 12:18:00;;;;;;;3.85;1.10;;;26.60;54.30;;;;;;5032980;28;20029;-70
2023/04/26 12:20:28;;;;;;;5.82;1.50;;;26.60;54.80;;;;;;5028450;28;20034;-70
2023/04/26 12:22:59;;;;;;;2.42;1.23;;;27.10;54.70;;;;;;5032271;28;20043;-70
2023/04/26 12:25:24;;;;;;;5.03;1.55;;;27.60;54.20;;;;;;5028689;28;20037;-70
2023/04/26 12:27:50;;;;;;;4.60;1.58;;;27.80;52.60;;;;;;5031611;28;20057;-69
2023/04/26 12:30:15;;;;;;;5.90;2.33;;;27.60;55.00;;;;;;5032621;28;20753;-70
2023/04/26 12:32:41;;;;;;;7.38;1.42;;;27.50;54.50;;;;;;5031273;28;20029;-69
2023/04/26 12:35:07;;;;;;;3.70;1.30;;;27.00;54.10;;;;;;5032323;28;20108;-71
2023/04/26 12:37:33;;;;;;;3.03;1.20;;;26.40;55.20;;;;;;5031305;28;20068;-71
2023/04/26 12:39:58;;;;;;;2.50;1.10;;;25.70;55.00;;;;;;5031971;28;20057;-70
2023/04/26 12:42:24;;;;;;;4.75;1.33;;;25.10;54.60;;;;;;5032123;28;20116;-70
2023/04/26 12:44:49;;;;;;;3.33;1.23;;;24.50;56.10;;;;;;5031012;28;20040;-69
2023/04/26 12:47:15;;;;;;;3.78;1.30;;;24.10;56.20;;;;;;5031724;28;20047;-69
2023/04/26 12:49:41;;;;;;;3.20;1.40;;;23.70;58.00;;;;;;5029371;28;20492;-70